UUMO METAR and TAF | Updated Today

UUMO METAR

Ostafyevo International Airport

Observation time: 24 min. ago

UUMO 200700Z 05004MPS 360V100 CAVOK 09/M01 Q1018 R07/CLRD60 NOSIG RMK QFE749/0998

Need help? Read our tutorial on how to read METARs or read the parsed version below.

Ostafyevo International Airport (UUMO) METAR

  • Weather conditions on Fri, 20 May 2022 07:00:00 +0000 (24 min. ago):
  • Present conditions: Dry
  • Clouds: Clear skies
  • Visibility: Greater than 10 km
  • Wind: 50 degrees at 4 knots
  • Temperature: 9 celsius
  • Dew point: -1 celsius
  • Pressure: 1018 millibars
  • Remarks: QFE749/0998


Useful to know...

UUMO TAF

Ostafyevo International Airport

TAF UUMO 200452Z 2006/2015 03003G08MPS 9999 BKN020
Observation time: 2:32 hr. ago
Need help? Read our tutorial on how to read TAFs or read the parsed version below.

Parsed version of TAF for Ostafyevo International Airport (UUMO)

  • From 20 May at 06:00 UTC, to day 20 of the month at 15:00 UTC
  • Clouds: Broken sky at 610 meters
  • Visibility: Greater than 10 km
  • Wind: 30 degrees at 3